createdAt,value
2022-12-06T00:04:30.356Z,417.70
2022-12-06T00:09:33.254Z,418.60
2022-12-06T00:14:37.479Z,394.50
2022-12-06T00:19:39.263Z,426.90
2022-12-06T00:24:41.245Z,472.00
2022-12-06T00:29:43.123Z,470.40
2022-12-06T00:34:44.907Z,482.30
2022-12-06T00:39:46.642Z,504.50
2022-12-06T00:44:48.457Z,500.80
2022-12-06T00:49:50.235Z,485.60
2022-12-06T00:54:51.934Z,411.80
2022-12-06T00:59:53.789Z,335.30
2022-12-06T01:04:55.496Z,321.10
2022-12-06T01:09:57.549Z,329.90
2022-12-06T01:14:59.586Z,272.60
2022-12-06T01:25:03.720Z,288.80
2022-12-06T01:30:06.807Z,311.80
2022-12-06T01:35:08.994Z,321.50
2022-12-06T01:40:11.480Z,308.10
2022-12-06T01:45:13.341Z,295.50
2022-12-06T01:50:22.166Z,257.60
2022-12-06T01:55:28.380Z,265.10
2022-12-06T02:00:30.264Z,281.20
2022-12-06T02:05:37.513Z,293.30
2022-12-06T02:10:42.472Z,261.70
2022-12-06T02:16:10.727Z,248.30
2022-12-06T02:21:18.280Z,250.00
2022-12-06T02:26:33.597Z,211.00
2022-12-06T02:31:50.565Z,281.70
2022-12-06T02:37:29.719Z,237.20
2022-12-06T02:42:42.515Z,250.60
2022-12-06T02:47:47.347Z,243.90
2022-12-06T02:52:53.443Z,271.30
2022-12-06T02:57:57.379Z,303.90
2022-12-06T03:03:08.215Z,310.40
2022-12-06T03:08:19.776Z,307.30
2022-12-06T03:13:43.441Z,289.80
2022-12-06T03:18:53.262Z,284.00
2022-12-06T03:23:55.810Z,237.40
2022-12-06T03:29:00.465Z,266.60
2022-12-06T03:34:10.258Z,300.80
2022-12-06T03:39:16.192Z,328.10
2022-12-06T03:44:18.076Z,350.80
2022-12-06T03:49:36.379Z,366.40
2022-12-06T03:54:42.424Z,346.70
2022-12-06T03:59:44.163Z,339.80
2022-12-06T04:04:46.100Z,348.00
2022-12-06T04:10:03.584Z,369.70
2022-12-06T04:15:06.745Z,353.70
2022-12-06T04:20:08.667Z,366.00
2022-12-06T04:25:10.440Z,364.00
2022-12-06T04:30:31.347Z,326.30
2022-12-06T04:35:51.894Z,383.70
2022-12-06T04:40:53.604Z,397.20
2022-12-06T04:45:55.638Z,384.60
2022-12-06T04:50:57.411Z,372.30
2022-12-06T04:55:59.497Z,339.20
2022-12-06T05:01:01.372Z,328.30
2022-12-06T05:06:03.488Z,318.90
2022-12-06T05:11:05.684Z,286.70
2022-12-06T05:16:08.128Z,288.60
2022-12-06T05:21:15.679Z,275.80
2022-12-06T05:26:19.681Z,251.00
2022-12-06T05:31:22.566Z,259.30
2022-12-06T05:36:27.637Z,257.70
2022-12-06T05:41:29.361Z,281.50
2022-12-06T05:46:31.032Z,286.30
2022-12-06T05:51:32.720Z,259.90
2022-12-06T05:56:34.472Z,247.20
2022-12-06T06:01:36.216Z,282.10
2022-12-06T06:06:37.885Z,290.40
2022-12-06T06:11:39.603Z,301.50
2022-12-06T06:16:41.519Z,297.40
2022-12-06T06:21:43.393Z,327.30
2022-12-06T06:26:45.083Z,428.60
2022-12-06T06:36:48.773Z,284.70
2022-12-06T06:41:50.536Z,290.50
2022-12-06T06:46:52.334Z,261.60
2022-12-06T06:51:54.036Z,334.80
2022-12-06T06:56:56.274Z,392.00
2022-12-06T07:01:58.122Z,316.30
2022-12-06T07:07:00.328Z,309.70
2022-12-06T07:12:02.355Z,312.90
2022-12-06T07:17:04.786Z,328.20
2022-12-06T07:22:06.804Z,330.90
2022-12-06T07:27:08.683Z,335.30
2022-12-06T07:32:10.987Z,318.90
2022-12-06T07:37:12.750Z,312.80
2022-12-06T07:42:33.204Z,295.50
2022-12-06T07:47:37.906Z,309.90
2022-12-06T07:52:39.697Z,321.30
2022-12-06T07:57:43.627Z,297.90
2022-12-06T08:02:46.073Z,295.20
2022-12-06T08:07:47.835Z,294.80
2022-12-06T08:12:49.509Z,294.70
2022-12-06T08:17:51.163Z,274.60
2022-12-06T08:27:54.391Z,291.70
2022-12-06T08:32:56.126Z,290.00
2022-12-06T08:37:57.778Z,290.20
2022-12-06T08:42:59.438Z,301.70
2022-12-06T08:48:01.735Z,291.20
2022-12-06T08:53:03.520Z,240.00
2022-12-06T08:58:05.255Z,214.20
2022-12-06T09:03:06.923Z,231.40
2022-12-06T09:08:08.664Z,214.80
2022-12-06T09:13:10.445Z,203.90
2022-12-06T09:18:12.119Z,262.80
2022-12-06T09:23:13.779Z,199.60
2022-12-06T09:28:15.974Z,131.50
2022-12-06T09:33:17.719Z,188.00
2022-12-06T09:38:27.088Z,179.30
2022-12-06T09:44:15.515Z,171.30
2022-12-06T09:49:42.837Z,153.50
2022-12-06T09:54:55.885Z,150.30
2022-12-06T10:00:23.109Z,140.60
2022-12-06T10:05:25.116Z,158.60
2022-12-06T10:10:45.539Z,140.50
2022-12-06T10:16:00.882Z,130.50
2022-12-06T10:21:23.133Z,105.60
2022-12-06T10:26:34.150Z,108.00
2022-12-06T10:32:06.622Z,74.20
2022-12-06T10:37:49.788Z,58.40
2022-12-06T10:42:57.704Z,60.40
2022-12-06T10:48:02.795Z,46.00
2022-12-06T10:53:11.566Z,45.60
2022-12-06T10:58:28.035Z,41.20
2022-12-06T11:03:38.077Z,47.00
2022-12-06T11:08:45.205Z,38.10
2022-12-06T11:13:56.539Z,46.10
2022-12-06T11:19:14.223Z,40.50
2022-12-06T11:24:20.040Z,42.50
2022-12-06T11:29:22.505Z,40.30
2022-12-06T11:34:33.129Z,80.40
2022-12-06T11:39:34.914Z,38.90
2022-12-06T11:44:50.056Z,40.70
2022-12-06T11:49:55.573Z,44.60
2022-12-06T11:55:06.500Z,41.20
2022-12-06T12:00:17.993Z,45.30
2022-12-06T12:10:42.638Z,50.90
2022-12-06T12:15:51.805Z,52.30
2022-12-06T12:20:56.082Z,47.30
2022-12-06T12:26:16.736Z,52.80
2022-12-06T12:31:25.440Z,47.90
2022-12-06T12:36:29.264Z,46.30
2022-12-06T12:41:38.630Z,46.30
2022-12-06T12:46:44.940Z,54.30
2022-12-06T12:51:48.215Z,53.20
2022-12-06T12:56:50.758Z,61.50
2022-12-06T13:02:05.577Z,60.40
2022-12-06T13:07:10.388Z,47.70
2022-12-06T13:12:35.808Z,47.50
2022-12-06T13:17:41.890Z,46.40
2022-12-06T13:22:45.534Z,41.90
2022-12-06T13:27:51.209Z,50.90
2022-12-06T13:33:16.456Z,56.70
2022-12-06T13:38:29.022Z,50.00
2022-12-06T13:43:39.278Z,46.20
2022-12-06T13:49:01.222Z,34.60
2022-12-06T13:59:15.620Z,31.20
2022-12-06T14:09:38.436Z,51.20
2022-12-06T14:14:40.141Z,31.10
2022-12-06T14:19:45.619Z,20.00
2022-12-06T14:25:01.467Z,21.60
2022-12-06T14:30:19.766Z,24.70
2022-12-06T14:35:37.191Z,20.30
2022-12-06T14:41:00.906Z,19.70
2022-12-06T14:46:06.294Z,23.50
2022-12-06T14:51:25.613Z,27.30
2022-12-06T14:56:34.732Z,24.70
2022-12-06T15:01:47.689Z,20.90
2022-12-06T15:06:56.366Z,19.90
2022-12-06T15:12:54.173Z,17.70
2022-12-06T15:18:04.161Z,25.40
2022-12-06T15:23:40.891Z,57.10
2022-12-06T15:28:42.949Z,78.40
2022-12-06T15:33:45.572Z,57.90
2022-12-06T15:38:48.130Z,48.50
2022-12-06T15:43:50.726Z,144.30
2022-12-06T15:48:53.909Z,58.10
2022-12-06T15:53:57.501Z,46.60
2022-12-06T15:58:59.198Z,44.60
2022-12-06T16:04:01.600Z,51.00
2022-12-06T16:09:03.502Z,55.00
2022-12-06T16:14:05.738Z,56.70
2022-12-06T16:19:07.407Z,55.80
2022-12-06T16:24:14.470Z,46.90
2022-12-06T16:29:20.655Z,38.10
2022-12-06T16:34:22.742Z,32.60
2022-12-06T16:39:25.145Z,25.10
2022-12-06T16:44:26.845Z,17.40
2022-12-06T16:49:45.834Z,19.40
2022-12-06T16:54:48.264Z,18.30
2022-12-06T16:59:49.962Z,20.60
2022-12-06T17:09:53.570Z,27.90
2022-12-06T17:14:55.262Z,22.80
2022-12-06T17:24:59.965Z,20.40
2022-12-06T17:30:01.888Z,18.10
2022-12-06T17:40:07.239Z,29.60
2022-12-06T17:45:09.148Z,36.60
2022-12-06T17:50:10.954Z,46.20
2022-12-06T18:00:15.588Z,36.00
2022-12-06T18:05:17.469Z,44.80
2022-12-06T18:10:19.153Z,43.20
2022-12-06T18:20:43.087Z,50.40
2022-12-06T18:25:44.709Z,61.40
2022-12-06T18:35:51.563Z,66.80
2022-12-06T18:41:00.657Z,75.10
2022-12-06T18:46:08.027Z,87.10
2022-12-06T18:51:12.484Z,94.20
2022-12-06T18:56:16.946Z,93.50
2022-12-06T19:01:21.845Z,93.30
2022-12-06T19:06:26.663Z,76.70
2022-12-06T19:11:28.767Z,80.00
2022-12-06T19:16:48.621Z,88.30
2022-12-06T19:21:52.320Z,75.80
2022-12-06T19:27:00.846Z,79.10
2022-12-06T19:32:02.451Z,80.30
2022-12-06T19:42:24.299Z,175.00
2022-12-06T19:47:27.404Z,93.60
2022-12-06T19:52:30.986Z,95.60
2022-12-06T19:57:32.997Z,84.90
2022-12-06T20:12:38.672Z,95.30
2022-12-06T20:22:42.796Z,85.00
2022-12-06T20:27:53.300Z,82.40
2022-12-06T20:32:54.927Z,79.90
2022-12-06T20:48:00.376Z,106.10
2022-12-06T20:53:02.495Z,100.10
2022-12-06T20:58:04.094Z,95.50
2022-12-06T21:08:07.546Z,88.00
2022-12-06T21:13:11.499Z,90.70
2022-12-06T21:18:18.777Z,84.40
2022-12-06T21:23:21.436Z,86.40
2022-12-06T21:33:25.472Z,86.90
2022-12-06T21:38:30.008Z,89.70
2022-12-06T21:43:31.775Z,88.10
2022-12-06T21:48:33.459Z,92.70
2022-12-06T21:58:37.555Z,105.20
2022-12-06T22:08:45.909Z,102.50
2022-12-06T22:13:52.820Z,95.80
2022-12-06T22:24:00.153Z,108.80
2022-12-06T22:29:01.820Z,108.30
2022-12-06T22:39:06.491Z,118.70
2022-12-06T22:44:08.305Z,118.10
2022-12-06T22:49:16.418Z,117.70
2022-12-06T22:54:19.554Z,119.40
2022-12-06T23:04:23.719Z,103.70
2022-12-06T23:14:27.032Z,117.20
2022-12-06T23:19:28.607Z,121.30
2022-12-06T23:24:30.345Z,112.30
2022-12-06T23:29:31.918Z,122.10
2022-12-06T23:36:24.396Z,121.20
2022-12-06T23:41:28.840Z,244.00
2022-12-06T23:46:32.577Z,110.80
2022-12-06T23:51:38.316Z,112.10
2022-12-06T23:56:42.029Z,109.00
